Time;durP1;ratioP1;P1;durP2;ratioP2;P2;SDS_P1;SDS_P2;PMS_P1;PMS_P2;Temp;Humidity;BMP_temperature;BMP_pressure;BME280_temperature;BME280_humidity;BME280_pressure;Samples;Min_cycle;Max_cycle;Signal;HPM_P1;HPM_P2
2023/07/05 00:00:57;;;;;;;4.30;1.65;;;;;;;20.35;74.84;99164.78;12222715;19;20019;-80
2023/07/05 00:04:59;;;;;;;2.60;1.30;;;;;;;20.37;75.52;99165.25;12222619;19;20039;-80
2023/07/05 00:09:00;;;;;;;3.27;1.40;;;;;;;20.41;75.94;99172.66;12200636;19;20021;-79
2023/07/05 00:13:03;;;;;;;3.40;1.50;;;;;;;20.44;76.70;99171.19;12221903;19;20476;-79
2023/07/05 00:17:05;;;;;;;3.00;1.50;;;;;;;20.43;79.70;99180.69;12216033;19;20530;-78
2023/07/05 00:21:09;;;;;;;3.20;1.30;;;;;;;20.29;83.83;99200.47;12193426;19;20085;-80
2023/07/05 00:25:11;;;;;;;11.25;2.15;;;;;;;19.94;94.27;99284.34;12212979;19;20039;-83
2023/07/05 00:29:15;;;;;;;11.73;3.27;;;;;;;19.21;100.00;99218.78;12213338;19;20034;-80
2023/07/05 00:33:17;;;;;;;13.18;4.20;;;;;;;18.52;100.00;99175.34;12193482;19;20271;-82
2023/07/05 00:37:18;;;;;;;10.90;3.17;;;;;;;18.14;100.00;99200.81;12215728;19;20082;-83
2023/07/05 00:41:20;;;;;;;9.52;3.40;;;;;;;17.94;100.00;99182.59;12213814;19;20263;-82
2023/07/05 00:45:50;;;;;;;9.23;3.83;;;;;;;17.80;100.00;99172.63;12193795;19;20104;-83
2023/07/05 00:49:57;;;;;;;11.85;3.13;;;;;;;17.65;100.00;99160.66;12213145;19;20085;-84
2023/07/05 00:54:02;;;;;;;7.93;3.95;;;;;;;17.59;100.00;99169.44;12192794;19;20006;-84
2023/07/05 00:58:04;;;;;;;13.98;4.72;;;;;;;17.57;100.00;99144.66;12212441;19;20051;-80
2023/07/05 01:02:06;;;;;;;12.17;4.73;;;;;;;17.60;100.00;99157.97;12213412;19;20010;-83
2023/07/05 01:06:08;;;;;;;9.88;4.35;;;;;;;17.56;100.00;99162.53;12191264;19;20006;-81
2023/07/05 01:10:16;;;;;;;11.57;4.20;;;;;;;17.52;100.00;99125.31;12213058;19;20015;-80
2023/07/05 01:14:32;;;;;;;8.68;4.13;;;;;;;17.44;100.00;99132.44;12211117;19;20002;-81
2023/07/05 01:18:48;;;;;;;8.32;2.85;;;;;;;17.31;100.00;99136.88;12189848;19;20002;-82
2023/07/05 01:22:58;;;;;;;4.82;2.70;;;;;;;17.18;100.00;99134.91;12210223;19;20014;-83
2023/07/05 01:27:33;;;;;;;7.38;2.53;;;;;;;17.09;100.00;99122.88;12192343;19;20014;-83
2023/07/05 01:31:58;;;;;;;5.53;2.83;;;;;;;17.03;100.00;99129.66;12212226;19;20009;-84
2023/07/05 01:36:00;;;;;;;4.38;2.15;;;;;;;16.95;100.00;99133.16;12188401;19;20055;-83
2023/07/05 01:40:21;;;;;;;4.20;2.05;;;;;;;16.90;100.00;99136.06;12213567;19;20011;-82
2023/07/05 01:44:23;;;;;;;5.25;2.45;;;;;;;16.92;100.00;99128.22;12212394;19;20070;-83
2023/07/05 01:48:53;;;;;;;6.05;2.17;;;;;;;16.95;100.00;99127.59;12184333;19;20372;-82
2023/07/05 01:52:55;;;;;;;5.10;2.13;;;;;;;16.96;100.00;99121.75;12206388;19;20010;-83
2023/07/05 01:57:10;;;;;;;7.55;2.65;;;;;;;16.93;100.00;99116.78;12188050;19;20023;-82
2023/07/05 02:01:16;;;;;;;4.68;2.10;;;;;;;16.90;100.00;99116.59;12212041;19;20070;-81
2023/07/05 02:05:19;;;;;;;6.07;2.28;;;;;;;16.88;100.00;99121.63;12210132;19;20080;-83
2023/07/05 02:09:20;;;;;;;;;;;;;;;16.85;100.00;99123.88;12192052;19;20015;-81
2023/07/05 02:13:23;;;;;;;5.65;2.30;;;;;;;16.90;100.00;99125.75;12220469;19;19910;-80
2023/07/05 02:17:25;;;;;;;6.15;2.42;;;;;;;16.92;100.00;99114.31;12211622;19;20044;-82
2023/07/05 02:21:27;;;;;;;5.40;2.83;;;;;;;16.93;100.00;99133.50;12192972;19;20035;-83
2023/07/05 02:25:31;;;;;;;5.70;2.17;;;;;;;16.95;100.00;99136.78;12211555;19;20035;-80
2023/07/05 02:29:33;;;;;;;6.57;2.65;;;;;;;17.01;100.00;99134.72;12213837;19;20034;-83
2023/07/05 02:33:35;;;;;;;6.53;2.70;;;;;;;17.07;100.00;99128.75;12189519;19;20064;-81
2023/07/05 02:37:36;;;;;;;7.10;3.00;;;;;;;17.09;100.00;99134.81;12211638;19;20027;-83
2023/07/05 02:41:39;;;;;;;5.70;2.80;;;;;;;17.13;100.00;99114.72;12212532;19;20007;-81
2023/07/05 02:45:41;;;;;;;3.70;2.40;;;;;;;17.14;100.00;99119.16;12183093;19;20022;-81
2023/07/05 02:49:43;;;;;;;5.50;2.42;;;;;;;17.18;100.00;99112.66;12209961;19;20015;-83
2023/07/05 02:53:45;;;;;;;3.67;1.90;;;;;;;17.21;100.00;99105.63;12210759;19;20010;-82
2023/07/05 02:57:46;;;;;;;4.57;2.10;;;;;;;17.22;100.00;99096.13;12187651;19;20414;-83
2023/07/05 03:01:49;;;;;;;4.57;2.28;;;;;;;17.19;100.00;99094.84;12213345;19;20027;-82
2023/07/05 03:05:59;;;;;;;6.03;2.40;;;;;;;17.27;100.00;99085.72;12213256;19;20466;-82
2023/07/05 03:10:01;;;;;;;5.95;2.80;;;;;;;17.26;100.00;99074.91;12224094;19;20015;-80
2023/07/05 03:14:03;;;;;;;3.67;2.27;;;;;;;17.27;100.00;99070.97;12222980;19;20015;-82
2023/07/05 03:18:05;;;;;;;5.40;2.30;;;;;;;17.25;100.00;99062.09;12200467;19;20018;-81
2023/07/05 03:22:08;;;;;;;;;;;;;;;17.19;100.00;99041.09;12223277;19;20125;-81
2023/07/05 03:26:10;;;;;;;5.35;1.80;;;;;;;17.16;100.00;99036.97;12219722;19;20333;-81
2023/07/05 03:30:12;;;;;;;3.37;2.20;;;;;;;17.18;100.00;99028.31;12196952;19;20051;-81
2023/07/05 03:34:15;;;;;;;3.72;2.00;;;;;;;17.17;100.00;99055.34;12221065;19;20028;-81
2023/07/05 03:38:17;;;;;;;4.00;2.45;;;;;;;17.19;100.00;99074.50;12218214;19;20013;-79
2023/07/05 03:42:19;;;;;;;3.60;2.10;;;;;;;17.21;100.00;99084.19;12199440;19;20043;-80
2023/07/05 03:46:22;;;;;;;5.78;2.30;;;;;;;17.27;100.00;99090.47;12220508;19;20034;-81
2023/07/05 03:50:24;;;;;;;3.65;2.10;;;;;;;17.28;100.00;99095.75;12220308;19;20042;-80
2023/07/05 03:54:28;;;;;;;3.97;2.05;;;;;;;17.28;100.00;99100.47;12197596;19;20023;-81
2023/07/05 03:58:30;;;;;;;5.65;1.80;;;;;;;17.27;100.00;99109.97;12217481;19;20002;-80
2023/07/05 04:02:32;;;;;;;3.60;1.95;;;;;;;17.24;100.00;99116.97;12221933;19;20042;-81
2023/07/05 04:06:33;;;;;;;3.65;1.80;;;;;;;17.23;100.00;99103.38;12200481;19;20010;-81
2023/07/05 04:10:35;;;;;;;4.33;1.77;;;;;;;17.17;100.00;99102.66;12235804;19;20011;-80
2023/07/05 04:14:37;;;;;;;5.93;2.33;;;;;;;17.13;100.00;99086.88;12236715;19;20009;-80
2023/07/05 04:18:40;;;;;;;8.48;3.28;;;;;;;17.14;100.00;99094.94;12216454;19;20013;-80
2023/07/05 04:22:42;;;;;;;8.55;2.50;;;;;;;17.17;100.00;99085.94;12222562;19;20006;-79
2023/07/05 04:26:43;;;;;;;5.90;2.60;;;;;;;17.28;100.00;99081.81;12218825;19;20021;-79
2023/07/05 04:30:45;;;;;;;5.88;2.50;;;;;;;17.34;100.00;99093.69;12194298;19;20014;-80
2023/07/05 04:34:47;;;;;;;4.45;2.47;;;;;;;17.40;100.00;99097.13;12215087;19;20006;-80
2023/07/05 04:38:50;;;;;;;8.23;2.63;;;;;;;17.47;100.00;99114.28;12211803;19;20011;-81
2023/07/05 04:42:51;;;;;;;5.30;2.35;;;;;;;17.62;100.00;99100.00;12191410;19;20857;-81
2023/07/05 04:46:54;;;;;;;5.07;2.50;;;;;;;17.80;100.00;99091.81;12212752;19;20839;-81
2023/07/05 04:50:57;;;;;;;7.25;2.35;;;;;;;17.82;100.00;99095.94;12190632;19;20401;-81
2023/07/05 04:54:59;;;;;;;5.07;2.33;;;;;;;17.83;100.00;99113.47;12212871;19;20014;-81
2023/07/05 04:59:01;;;;;;;6.55;2.40;;;;;;;17.98;100.00;99113.09;12221734;19;20031;-79
2023/07/05 05:03:03;;;;;;;5.57;2.15;;;;;;;18.18;100.00;99111.78;12221926;19;20022;-82
2023/07/05 05:07:06;;;;;;;4.43;2.13;;;;;;;18.33;100.00;99096.63;12219505;19;20427;-79
2023/07/05 05:11:08;;;;;;;8.03;2.77;;;;;;;18.36;100.00;99104.38;12224482;19;20010;-79
2023/07/05 05:15:10;;;;;;;5.22;2.47;;;;;;;18.31;100.00;99104.50;12190226;19;20018;-79
2023/07/05 05:19:14;;;;;;;7.28;2.53;;;;;;;18.16;100.00;99109.31;12211063;19;20073;-80
2023/07/05 05:23:16;;;;;;;5.82;2.30;;;;;;;17.95;100.00;99131.28;12191538;19;20018;-87
2023/07/05 05:27:20;;;;;;;5.90;2.97;;;;;;;17.76;100.00;99147.34;12198767;19;20035;-80
2023/07/05 05:31:22;;;;;;;7.07;3.17;;;;;;;17.49;100.00;99167.69;12214673;19;20014;-82
2023/07/05 05:35:24;;;;;;;8.15;4.03;;;;;;;17.40;100.00;99175.13;12218487;19;20021;-81
2023/07/05 05:39:27;;;;;;;9.82;4.38;;;;;;;17.33;100.00;99197.81;12203932;19;20017;-82
2023/07/05 05:43:29;;;;;;;12.70;4.75;;;;;;;17.27;100.00;99202.66;12225315;19;20013;-81
2023/07/05 05:47:33;;;;;;;9.45;4.57;;;;;;;17.25;100.00;99213.31;12226094;19;20028;-82
2023/07/05 05:51:34;;;;;;;10.90;5.07;;;;;;;17.26;100.00;99222.47;12204210;19;20006;-84
2023/07/05 05:55:38;;;;;;;11.68;4.85;;;;;;;17.33;100.00;99220.09;12222266;19;20563;-81
2023/07/05 05:59:40;;;;;;;11.55;4.95;;;;;;;17.38;100.00;99214.44;12217057;19;20029;-81
2023/07/05 06:03:42;;;;;;;;;;;;;;;17.37;100.00;99218.38;12193422;19;20003;-83
2023/07/05 06:07:45;;;;;;;7.60;3.97;;;;;;;17.39;100.00;99212.47;12214681;19;19951;-82
2023/07/05 06:11:47;;;;;;;7.93;3.47;;;;;;;17.52;100.00;99218.06;12220487;19;20011;-81
2023/07/05 06:15:58;;;;;;;9.40;3.30;;;;;;;17.90;100.00;99222.56;12194205;19;20023;-81
2023/07/05 06:20:14;;;;;;;8.30;3.10;;;;;;;18.12;100.00;99244.94;12212021;19;20031;-82
2023/07/05 06:24:16;;;;;;;8.30;3.53;;;;;;;18.18;100.00;99262.38;12193886;19;20062;-82
2023/07/05 06:28:19;;;;;;;10.43;2.72;;;;;;;18.13;100.00;99266.09;12217121;19;20011;-82
2023/07/05 06:32:22;;;;;;;7.07;2.90;;;;;;;18.07;100.00;99280.47;12219239;19;20027;-81
2023/07/05 06:36:25;;;;;;;4.90;2.47;;;;;;;17.91;100.00;99288.34;12197338;19;20104;-80
2023/07/05 06:40:27;;;;;;;6.47;2.50;;;;;;;17.63;100.00;99291.06;12229193;19;20009;-79
2023/07/05 06:44:29;;;;;;;4.93;2.50;;;;;;;17.63;100.00;99309.75;12228056;19;20031;-80
2023/07/05 06:48:31;;;;;;;;;;;;;;;17.69;100.00;99319.66;12209481;19;20003;-78
2023/07/05 06:52:34;;;;;;;10.52;3.08;;;;;;;17.82;100.00;99321.69;12232362;19;19919;-79
2023/07/05 06:56:37;;;;;;;5.28;2.65;;;;;;;17.79;100.00;99324.22;12222415;19;20452;-78
2023/07/05 07:00:39;;;;;;;7.53;2.80;;;;;;;17.77;100.00;99341.25;12201774;19;20019;-79
2023/07/05 07:04:42;;;;;;;6.43;3.17;;;;;;;17.72;100.00;99355.28;12222777;19;20021;-77
2023/07/05 07:08:46;;;;;;;7.45;3.03;;;;;;;17.92;98.57;99359.66;12224996;19;20021;-78
2023/07/05 07:12:47;;;;;;;7.45;3.47;;;;;;;18.32;99.44;99366.34;12206089;19;20014;-80
2023/07/05 07:16:52;;;;;;;7.25;3.47;;;;;;;18.79;91.64;99375.34;12218553;19;20013;-80
2023/07/05 07:20:55;;;;;;;6.85;3.92;;;;;;;19.04;85.56;99385.09;12202026;19;20014;-79
2023/07/05 07:24:58;;;;;;;8.20;3.05;;;;;;;18.90;78.96;99401.06;12222361;19;20047;-79
2023/07/05 07:29:04;;;;;;;8.05;3.15;;;;;;;18.63;75.39;99402.75;12224024;19;20507;-79
2023/07/05 07:33:05;;;;;;;7.13;3.63;;;;;;;18.60;77.15;99385.81;12208088;19;20014;-78
2023/07/05 07:37:08;;;;;;;8.15;4.10;;;;;;;18.52;81.02;99401.31;12217876;19;20266;-79
2023/07/05 07:41:21;;;;;;;9.75;4.15;;;;;;;18.52;78.80;99406.09;12225326;19;20031;-79
2023/07/05 07:45:23;;;;;;;10.32;3.25;;;;;;;18.42;73.83;99430.28;12206523;19;20028;-80
2023/07/05 07:49:25;;;;;;;10.53;3.23;;;;;;;18.64;70.01;99425.91;12226239;19;20112;-79
2023/07/05 07:53:29;;;;;;;6.22;2.40;;;;;;;19.09;65.39;99438.00;12230190;19;20010;-76
2023/07/05 07:57:31;;;;;;;13.82;2.63;;;;;;;19.02;61.13;99428.44;12208521;19;20789;-81
2023/07/05 08:01:38;;;;;;;6.45;2.75;;;;;;;18.79;59.80;99441.53;12222944;19;20007;-80
2023/07/05 08:05:40;;;;;;;8.50;2.55;;;;;;;18.90;61.23;99454.13;12222916;19;20082;-79
2023/07/05 08:09:42;;;;;;;6.85;2.95;;;;;;;19.20;59.88;99457.34;12203375;19;20366;-82
2023/07/05 08:13:48;;;;;;;5.70;2.63;;;;;;;19.47;61.04;99461.97;12223220;19;20036;-80
2023/07/05 08:17:51;;;;;;;7.53;2.95;;;;;;;19.53;59.57;99469.91;12219506;19;20267;-79
2023/07/05 08:21:52;;;;;;;6.28;2.83;;;;;;;19.54;58.05;99452.03;12221493;19;20006;-79
2023/07/05 08:25:56;;;;;;;7.72;2.65;;;;;;;19.59;57.85;99451.88;12223158;19;20013;-78
2023/07/05 08:29:58;;;;;;;9.52;3.00;;;;;;;19.77;57.38;99458.44;12201691;19;20019;-80
2023/07/05 08:34:01;;;;;;;5.23;2.60;;;;;;;19.72;56.73;99466.13;12220383;19;20349;-78
2023/07/05 08:38:03;;;;;;;7.65;3.08;;;;;;;19.48;58.03;99470.06;12216964;19;20040;-79
2023/07/05 08:42:25;;;;;;;6.47;2.97;;;;;;;19.52;54.63;99467.44;12200858;19;20010;-79
2023/07/05 08:46:29;;;;;;;6.53;2.67;;;;;;;19.36;58.06;99466.97;12221757;19;20017;-79
2023/07/05 08:50:37;;;;;;;7.72;2.80;;;;;;;19.75;54.37;99471.06;12224849;19;20018;-80
2023/07/05 08:54:42;;;;;;;6.57;3.10;;;;;;;20.20;55.45;99471.84;12207222;19;20022;-78
2023/07/05 08:58:51;;;;;;;7.38;3.33;;;;;;;20.27;53.39;99477.78;12224151;19;20027;-78
2023/07/05 09:02:53;;;;;;;5.38;2.83;;;;;;;19.89;54.56;99496.97;12201761;19;20010;-78
2023/07/05 09:07:08;;;;;;;;;;;;;;;19.58;58.46;99511.72;12223766;19;20020;-79
2023/07/05 09:11:15;;;;;;;5.57;2.65;;;;;;;19.35;58.35;99505.28;12221683;19;19967;-80
2023/07/05 09:15:25;;;;;;;6.10;2.72;;;;;;;19.17;59.02;99511.84;12201717;19;20033;-80
2023/07/05 09:19:49;;;;;;;5.68;3.00;;;;;;;19.43;58.03;99511.28;12217941;19;20010;-79
2023/07/05 09:23:56;;;;;;;7.15;3.28;;;;;;;19.56;56.68;99513.16;12226895;19;20006;-79
2023/07/05 09:28:21;;;;;;;5.68;2.85;;;;;;;19.63;54.84;99527.56;12219712;19;20012;-78
2023/07/05 09:32:30;;;;;;;6.35;2.53;;;;;;;19.80;56.77;99518.47;12227531;19;20006;-79
2023/07/05 09:36:33;;;;;;;5.78;2.17;;;;;;;20.86;53.65;99499.09;12196996;19;20412;-78
2023/07/05 09:40:42;;;;;;;4.80;2.65;;;;;;;21.83;48.11;99524.03;12226578;19;20005;-78
2023/07/05 09:44:45;;;;;;;4.22;2.25;;;;;;;21.91;46.98;99513.97;12226693;19;20018;-80
2023/07/05 09:48:49;;;;;;;6.75;2.53;;;;;;;21.54;47.19;99525.56;12198020;19;20022;-79
2023/07/05 09:52:59;;;;;;;4.93;2.35;;;;;;;21.66;45.56;99518.47;12222400;19;20021;-79
2023/07/05 09:57:06;;;;;;;3.60;1.95;;;;;;;22.07;47.08;99526.31;12194354;19;20007;-79
2023/07/05 10:01:17;;;;;;;6.90;2.58;;;;;;;21.82;45.00;99545.66;12216203;19;20047;-78
2023/07/05 10:05:28;;;;;;;5.50;2.65;;;;;;;21.66;47.08;99547.34;12213383;19;20591;-81
2023/07/05 10:09:31;;;;;;;4.47;2.45;;;;;;;21.33;47.74;99546.97;12195927;19;20029;-80
2023/07/05 10:13:34;;;;;;;3.58;2.20;;;;;;;21.27;48.56;99551.09;12217980;19;20018;-78
2023/07/05 10:17:41;;;;;;;;;;;;;;;21.16;47.62;99581.38;12214514;19;20138;-80
2023/07/05 10:21:43;;;;;;;5.88;2.40;;;;;;;20.88;48.62;99578.84;12196522;19;20460;-78
2023/07/05 10:25:47;;;;;;;5.90;2.13;;;;;;;21.09;48.65;99576.25;12213850;19;20021;-80
2023/07/05 10:29:50;;;;;;;5.13;2.10;;;;;;;21.62;45.83;99557.53;12215195;19;20011;-79
2023/07/05 10:34:04;;;;;;;3.72;2.17;;;;;;;21.69;45.74;99571.09;12194476;19;20015;-79
2023/07/05 10:38:18;;;;;;;6.20;1.67;;;;;;;21.96;43.55;99587.56;12209774;19;20011;-79
2023/07/05 10:42:20;;;;;;;2.28;1.35;;;;;;;22.71;41.01;99578.84;12191439;19;20018;-78
2023/07/05 10:46:26;;;;;;;4.38;1.40;;;;;;;22.01;40.96;99572.53;12214462;19;20490;-80
2023/07/05 10:50:30;;;;;;;3.75;1.60;;;;;;;22.13;42.55;99592.34;12216861;19;20011;-79
2023/07/05 10:54:37;;;;;;;2.80;1.50;;;;;;;22.06;40.74;99589.19;12199665;19;20011;-80
2023/07/05 10:58:55;;;;;;;3.97;1.48;;;;;;;21.95;38.36;99599.97;12207920;19;20082;-78
2023/07/05 11:03:11;;;;;;;4.78;1.42;;;;;;;21.59;41.28;99589.03;12194443;19;20020;-79
2023/07/05 11:07:14;;;;;;;3.83;1.73;;;;;;;21.63;41.79;99587.25;12213903;19;20006;-78
2023/07/05 11:11:23;;;;;;;2.88;1.50;;;;;;;21.91;41.62;99601.75;12214257;19;20073;-81
2023/07/05 11:15:27;;;;;;;5.00;1.20;;;;;;;21.70;42.15;99579.16;12198236;19;20017;-80
2023/07/05 11:19:31;;;;;;;5.15;1.27;;;;;;;22.34;40.49;99586.03;12214519;19;20017;-79
2023/07/05 11:23:43;;;;;;;5.82;1.52;;;;;;;22.93;38.50;99580.53;12219120;19;20018;-79
2023/07/05 11:27:54;;;;;;;6.13;1.73;;;;;;;23.27;39.72;99584.38;12201697;19;19999;-79
2023/07/05 11:32:03;;;;;;;6.80;1.30;;;;;;;23.50;37.25;99590.47;12228054;19;20006;-79
2023/07/05 11:36:31;;;;;;;3.95;1.27;;;;;;;23.45;37.49;99597.13;12206391;19;20263;-80
2023/07/05 11:40:56;;;;;;;5.13;1.27;;;;;;;23.06;37.40;99584.31;12224036;19;20034;-80
2023/07/05 11:44:58;;;;;;;4.43;1.42;;;;;;;23.06;36.82;99601.19;12206254;19;20031;-80
2023/07/05 11:49:24;;;;;;;4.07;1.02;;;;;;;23.03;36.99;99591.44;12226502;19;20017;-80
2023/07/05 11:53:31;;;;;;;3.25;1.60;;;;;;;23.25;37.85;99598.75;12229236;19;20021;-82
2023/07/05 11:57:42;;;;;;;5.35;1.70;;;;;;;24.22;37.90;99588.41;12208658;19;20010;-79
2023/07/05 12:01:44;;;;;;;3.58;1.40;;;;;;;24.77;35.76;99592.78;12222549;19;20370;-80
2023/07/05 12:05:55;;;;;;;4.85;1.33;;;;;;;24.88;35.50;99602.44;12229362;19;20066;-82
2023/07/05 12:09:58;;;;;;;5.00;1.60;;;;;;;25.17;34.87;99586.50;12204724;19;20011;-81
2023/07/05 12:14:04;;;;;;;5.32;1.85;;;;;;;24.98;34.04;99592.69;12228618;19;20031;-81
2023/07/05 12:18:13;;;;;;;3.95;1.45;;;;;;;24.81;33.42;99604.19;12204603;19;20011;-82
2023/07/05 12:22:21;;;;;;;2.88;1.50;;;;;;;24.77;34.09;99581.53;12229239;19;20010;-80
2023/07/05 12:26:32;;;;;;;5.93;1.55;;;;;;;25.32;33.81;99576.50;12227884;19;20018;-79
2023/07/05 12:30:40;;;;;;;4.47;1.70;;;;;;;25.51;32.74;99578.69;12202019;19;20017;-80
2023/07/05 12:34:44;;;;;;;4.55;1.48;;;;;;;25.60;32.53;99573.75;12224222;19;20010;-81
2023/07/05 12:38:48;;;;;;;3.55;1.67;;;;;;;25.91;32.51;99570.28;12220692;19;20023;-80
2023/07/05 12:43:04;;;;;;;4.57;1.38;;;;;;;27.06;31.20;99562.88;12204482;19;20122;-79
2023/07/05 12:47:15;;;;;;;5.80;1.75;;;;;;;27.71;29.55;99571.66;12225724;19;20014;-83
2023/07/05 12:51:21;;;;;;;3.70;1.85;;;;;;;27.91;29.86;99558.38;12203466;19;20085;-81
2023/07/05 12:55:27;;;;;;;3.25;1.45;;;;;;;29.14;27.88;99564.31;12221358;19;20014;-82
2023/07/05 12:59:35;;;;;;;5.90;2.00;;;;;;;29.32;27.24;99565.41;12221319;19;20003;-81
2023/07/05 13:03:55;;;;;;;4.15;2.00;;;;;;;29.87;27.51;99574.31;12202963;19;20079;-82
2023/07/05 13:08:00;;;;;;;4.72;1.52;;;;;;;30.41;26.31;99553.06;12221571;19;20022;-81
2023/07/05 13:12:06;;;;;;;6.97;2.25;;;;;;;30.61;25.41;99587.78;12205713;19;20583;-83
2023/07/05 13:16:27;;;;;;;4.80;1.77;;;;;;;31.34;24.23;99567.28;12218463;19;20030;-83
2023/07/05 13:20:32;;;;;;;6.90;2.03;;;;;;;30.01;25.03;99570.00;12221384;19;20027;-82
2023/07/05 13:24:37;;;;;;;4.30;1.70;;;;;;;29.08;25.63;99570.31;12198569;19;20102;-81
2023/07/05 13:28:40;;;;;;;5.78;1.70;;;;;;;27.92;27.04;99576.19;12217542;19;20700;-82
2023/07/05 13:32:49;;;;;;;2.78;1.38;;;;;;;27.96;27.62;99554.41;12245456;19;20014;-80
2023/07/05 13:36:56;;;;;;;2.85;2.03;;;;;;;29.08;25.69;99578.00;12228939;19;20010;-80
2023/07/05 13:40:59;;;;;;;8.15;1.90;;;;;;;30.04;25.47;99572.09;12228684;19;20018;-78
2023/07/05 13:45:02;;;;;;;4.38;1.50;;;;;;;29.80;24.86;99573.41;12205622;19;20053;-84
2023/07/05 13:49:11;;;;;;;5.00;1.83;;;;;;;29.44;26.15;99565.16;12218348;19;20806;-80
2023/07/05 13:53:20;;;;;;;6.70;1.90;;;;;;;31.18;25.08;99576.13;12236581;19;20017;-79
2023/07/05 13:57:25;;;;;;;4.13;1.88;;;;;;;33.03;22.47;99566.72;12211923;19;20076;-81
2023/07/05 14:01:27;;;;;;;3.17;1.63;;;;;;;32.95;21.81;99579.34;12236936;19;20010;-81
2023/07/05 14:05:29;;;;;;;5.13;1.80;;;;;;;32.78;22.27;99586.69;12226203;19;20025;-82
2023/07/05 14:09:31;;;;;;;6.85;2.17;;;;;;;31.38;23.55;99565.31;12197687;19;20056;-81
2023/07/05 14:13:36;;;;;;;5.75;1.73;;;;;;;31.24;24.41;99563.16;12222332;19;20006;-82
2023/07/05 14:17:38;;;;;;;4.60;1.70;;;;;;;29.70;25.49;99564.34;12220574;19;20338;-83
2023/07/05 14:21:40;;;;;;;7.28;1.75;;;;;;;28.53;26.45;99569.75;12197442;19;20063;-81
2023/07/05 14:25:47;;;;;;;2.92;1.50;;;;;;;30.05;24.92;99565.22;12218138;19;20010;-82
2023/07/05 14:29:52;;;;;;;5.20;2.00;;;;;;;31.63;23.51;99574.00;12214531;19;20007;-81
2023/07/05 14:33:56;;;;;;;6.28;1.92;;;;;;;32.48;22.58;99572.75;12198642;19;20050;-81
2023/07/05 14:37:59;;;;;;;5.97;2.30;;;;;;;31.91;22.89;99572.53;12218360;19;20003;-80
2023/07/05 14:42:02;;;;;;;3.40;1.80;;;;;;;31.13;23.95;99572.84;12224765;19;20014;-78
2023/07/05 14:46:09;;;;;;;6.38;1.80;;;;;;;31.17;23.99;99583.00;12267320;19;20013;-80
2023/07/05 14:50:13;;;;;;;5.40;1.90;;;;;;;30.60;24.18;99579.63;12265097;19;19998;-79
2023/07/05 14:54:16;;;;;;;3.55;1.92;;;;;;;31.67;23.88;99589.06;12221007;19;20464;-81
2023/07/05 14:58:19;;;;;;;5.65;2.08;;;;;;;30.19;24.37;99574.72;12220914;19;20002;-80
2023/07/05 15:02:23;;;;;;;7.15;2.55;;;;;;;28.97;25.46;99585.47;12233337;19;20029;-81
2023/07/05 15:06:26;;;;;;;4.68;2.22;;;;;;;28.45;26.19;99587.81;12207767;19;20006;-83
2023/07/05 15:10:28;;;;;;;5.65;2.15;;;;;;;27.45;27.38;99577.13;12232295;19;20014;-79
2023/07/05 15:14:33;;;;;;;5.07;2.25;;;;;;;28.08;27.23;99582.59;12236488;19;20010;-80
2023/07/05 15:18:35;;;;;;;5.20;2.30;;;;;;;29.23;25.97;99596.06;12206545;19;20014;-81
2023/07/05 15:22:38;;;;;;;6.38;2.30;;;;;;;27.48;27.44;99590.56;12226977;19;20048;-80
2023/07/05 15:26:40;;;;;;;5.70;1.98;;;;;;;26.66;28.34;99577.22;12232976;19;20021;-80
2023/07/05 15:30:42;;;;;;;6.22;2.20;;;;;;;25.77;29.89;99592.41;12207658;19;20006;-81
2023/07/05 15:34:45;;;;;;;7.28;2.30;;;;;;;25.12;31.05;99587.53;12227586;19;20010;-80
2023/07/05 15:38:49;;;;;;;5.32;2.10;;;;;;;25.00;30.85;99582.72;12225376;19;20010;-81
2023/07/05 15:42:51;;;;;;;;;;;;;;;25.10;31.42;99581.41;12197989;19;20021;-79
2023/07/05 15:46:56;;;;;;;11.07;2.50;;;;;;;25.22;31.19;99586.25;12229784;19;19914;-81
2023/07/05 15:50:58;;;;;;;11.15;2.55;;;;;;;24.63;31.77;99576.25;12209773;19;20030;-82
2023/07/05 15:55:00;;;;;;;7.45;2.53;;;;;;;24.38;32.54;99577.31;12228710;19;20017;-80
2023/07/05 15:59:12;;;;;;;6.25;2.75;;;;;;;24.29;32.96;99591.47;12225450;19;20006;-80
2023/07/05 16:03:14;;;;;;;5.00;2.28;;;;;;;24.20;32.77;99580.31;12203905;19;20143;-80
2023/07/05 16:07:17;;;;;;;3.70;2.00;;;;;;;24.15;33.08;99593.78;12224868;19;20010;-82
2023/07/05 16:11:20;;;;;;;5.32;2.28;;;;;;;24.11;32.91;99597.28;12225809;19;20015;-78
2023/07/05 16:15:22;;;;;;;5.15;2.22;;;;;;;24.09;33.11;99610.06;12204822;19;20011;-80
2023/07/05 16:19:24;;;;;;;;;;;;;;;24.04;33.30;99596.22;12225864;19;20002;-81
2023/07/05 16:23:27;;;;;;;7.20;2.33;;;;;;;23.97;32.80;99585.50;12223117;19;20014;-79
2023/07/05 16:27:28;;;;;;;6.28;2.30;;;;;;;24.04;33.57;99604.66;12202780;19;20019;-79
2023/07/05 16:31:30;;;;;;;5.63;2.07;;;;;;;23.94;33.95;99600.25;12223522;19;20011;-82
2023/07/05 16:35:32;;;;;;;4.18;2.17;;;;;;;23.72;33.80;99607.06;12223350;19;20423;-79
2023/07/05 16:39:35;;;;;;;6.00;2.17;;;;;;;23.49;33.74;99609.34;12214412;19;20034;-81
2023/07/05 16:43:37;;;;;;;7.15;2.47;;;;;;;23.32;34.18;99609.44;12221430;19;20007;-82
2023/07/05 16:47:45;;;;;;;4.93;2.22;;;;;;;23.37;34.29;99612.06;12224484;19;20027;-80
2023/07/05 16:51:47;;;;;;;7.47;2.58;;;;;;;23.38;34.42;99605.28;12199522;19;20072;-81
2023/07/05 16:55:50;;;;;;;3.90;1.98;;;;;;;23.39;34.25;99606.94;12212728;19;20014;-80
2023/07/05 16:59:53;;;;;;;6.88;2.30;;;;;;;23.09;33.70;99609.75;12200750;19;20017;-78
2023/07/05 17:03:55;;;;;;;5.47;2.22;;;;;;;23.02;34.40;99609.44;12219361;19;20093;-80
2023/07/05 17:07:58;;;;;;;5.70;2.10;;;;;;;23.06;34.39;99615.25;12216735;19;20051;-81
2023/07/05 17:12:00;;;;;;;5.50;2.10;;;;;;;23.13;34.08;99624.78;12200252;19;20023;-80
2023/07/05 17:16:03;;;;;;;7.95;2.03;;;;;;;23.12;34.43;99623.13;12214091;19;20015;-79
2023/07/05 17:20:06;;;;;;;5.28;1.70;;;;;;;23.00;34.81;99611.78;12214604;19;20006;-78
2023/07/05 17:24:10;;;;;;;4.45;1.85;;;;;;;23.02;34.51;99614.25;12230178;19;20058;-77
2023/07/05 17:28:12;;;;;;;10.23;2.03;;;;;;;23.18;35.14;99616.16;12228651;19;20007;-80
2023/07/05 17:32:15;;;;;;;5.35;2.03;;;;;;;23.16;34.42;99620.47;12223638;19;20017;-78
2023/07/05 17:36:20;;;;;;;5.68;1.83;;;;;;;23.28;34.81;99609.31;12196669;19;20106;-79
2023/07/05 17:40:24;;;;;;;4.50;1.67;;;;;;;23.40;34.34;99617.84;12215426;19;20349;-80
2023/07/05 17:44:25;;;;;;;;;;;;;;;23.32;34.71;99620.69;12211825;19;20035;-81
2023/07/05 17:48:27;;;;;;;4.05;1.73;;;;;;;23.38;35.49;99624.97;12209746;19;19919;-79
2023/07/05 17:52:29;;;;;;;6.70;1.97;;;;;;;23.28;35.42;99628.16;12215403;19;20022;-80
2023/07/05 17:56:32;;;;;;;6.65;2.47;;;;;;;23.25;35.40;99624.03;12213753;19;20010;-81
2023/07/05 18:00:34;;;;;;;5.82;1.85;;;;;;;23.20;35.65;99624.22;12198699;19;20010;-82
2023/07/05 18:04:36;;;;;;;8.27;1.80;;;;;;;23.07;36.01;99630.94;12221693;19;20014;-80
2023/07/05 18:08:39;;;;;;;3.63;1.97;;;;;;;23.00;36.09;99636.25;12216256;19;20006;-81
2023/07/05 18:12:41;;;;;;;3.83;1.80;;;;;;;22.79;36.01;99638.97;12201679;19;20043;-79
2023/07/05 18:16:43;;;;;;;5.80;1.47;;;;;;;22.60;36.28;99651.38;12217962;19;20003;-79
2023/07/05 18:20:45;;;;;;;4.37;1.60;;;;;;;22.37;36.61;99655.53;12217758;19;20018;-78
2023/07/05 18:24:48;;;;;;;4.20;1.70;;;;;;;22.23;36.40;99647.31;12195348;19;20629;-80
2023/07/05 18:28:51;;;;;;;5.40;1.90;;;;;;;22.14;37.49;99647.31;12230788;19;20006;-79
2023/07/05 18:32:54;;;;;;;4.00;1.30;;;;;;;22.04;37.11;99656.88;12201802;19;20013;-78
2023/07/05 18:36:56;;;;;;;3.27;1.43;;;;;;;22.03;37.74;99662.81;12241890;19;20019;-78
2023/07/05 18:41:03;;;;;;;6.28;1.85;;;;;;;21.84;37.70;99657.53;12238073;19;20011;-78
2023/07/05 18:45:07;;;;;;;4.13;1.80;;;;;;;21.57;38.81;99665.09;12212321;19;20015;-78
2023/07/05 18:49:09;;;;;;;7.32;1.83;;;;;;;21.38;38.96;99662.56;12239765;19;20084;-79
2023/07/05 18:53:10;;;;;;;7.20;2.30;;;;;;;21.27;39.64;99669.59;12238311;19;20002;-79
2023/07/05 18:57:12;;;;;;;4.17;1.73;;;;;;;21.14;39.68;99678.94;12215058;19;20019;-79